createdAt,value
2023-05-20T00:01:53.026Z,100.00
2023-05-20T00:04:19.795Z,100.00
2023-05-20T00:06:46.571Z,100.00
2023-05-20T00:09:13.309Z,100.00
2023-05-20T00:11:40.073Z,100.00
2023-05-20T00:14:06.671Z,100.00
2023-05-20T00:16:33.343Z,100.00
2023-05-20T00:19:00.267Z,100.00
2023-05-20T00:21:27.136Z,100.00
2023-05-20T00:23:53.885Z,100.00
2023-05-20T00:26:21.636Z,100.00
2023-05-20T00:28:48.403Z,100.00
2023-05-20T00:31:15.061Z,100.00
2023-05-20T00:33:41.771Z,100.00
2023-05-20T00:36:08.999Z,100.00
2023-05-20T00:38:35.861Z,100.00
2023-05-20T00:41:02.506Z,100.00
2023-05-20T00:43:29.577Z,100.00
2023-05-20T00:45:56.921Z,100.00
2023-05-20T00:48:23.722Z,100.00
2023-05-20T00:50:51.045Z,100.00
2023-05-20T00:53:21.645Z,100.00
2023-05-20T00:55:48.638Z,100.00
2023-05-20T00:58:15.841Z,100.00
2023-05-20T01:00:43.044Z,100.00
2023-05-20T01:03:10.075Z,100.00
2023-05-20T01:05:38.147Z,100.00
2023-05-20T01:08:06.695Z,100.00
2023-05-20T01:10:37.933Z,100.00
2023-05-20T01:13:11.622Z,100.00
2023-05-20T01:15:40.752Z,100.00
2023-05-20T01:18:10.796Z,100.00
2023-05-20T01:20:39.567Z,100.00
2023-05-20T01:23:06.263Z,100.00
2023-05-20T01:25:33.001Z,100.00
2023-05-20T01:27:59.720Z,100.00
2023-05-20T01:30:48.229Z,100.00
2023-05-20T01:33:16.659Z,100.00
2023-05-20T01:35:43.408Z,100.00
2023-05-20T01:38:10.146Z,100.00
2023-05-20T01:40:37.394Z,100.00
2023-05-20T01:43:04.528Z,100.00
2023-05-20T01:45:32.354Z,100.00
2023-05-20T01:47:59.283Z,100.00
2023-05-20T01:50:26.753Z,100.00
2023-05-20T01:52:53.395Z,100.00
2023-05-20T01:55:20.126Z,100.00
2023-05-20T01:57:47.448Z,100.00
2023-05-20T02:00:14.420Z,100.00
2023-05-20T02:02:41.347Z,100.00
2023-05-20T02:05:08.577Z,100.00
2023-05-20T02:07:35.188Z,100.00
2023-05-20T02:10:01.940Z,100.00
2023-05-20T02:12:28.535Z,100.00
2023-05-20T02:14:55.569Z,100.00
2023-05-20T02:17:22.297Z,100.00
2023-05-20T02:19:49.588Z,100.00
2023-05-20T02:22:16.336Z,100.00
2023-05-20T02:24:43.843Z,100.00
2023-05-20T02:27:10.979Z,100.00
2023-05-20T02:29:37.730Z,100.00
2023-05-20T02:32:04.714Z,100.00
2023-05-20T02:34:33.152Z,100.00
2023-05-20T02:36:59.901Z,100.00
2023-05-20T02:39:26.649Z,100.00
2023-05-20T02:41:53.284Z,100.00
2023-05-20T02:44:20.332Z,100.00
2023-05-20T02:46:48.236Z,100.00
2023-05-20T02:49:14.991Z,100.00
2023-05-20T02:51:41.629Z,100.00
2023-05-20T02:54:08.330Z,100.00
2023-05-20T02:56:34.930Z,100.00
2023-05-20T02:59:01.802Z,100.00
2023-05-20T03:01:29.249Z,100.00
2023-05-20T03:03:55.950Z,100.00
2023-05-20T03:06:22.700Z,100.00
2023-05-20T03:08:49.366Z,100.00
2023-05-20T03:11:16.283Z,100.00
2023-05-20T03:13:42.966Z,100.00
2023-05-20T03:16:09.782Z,100.00
2023-05-20T03:18:36.478Z,100.00
2023-05-20T03:21:03.049Z,100.00
2023-05-20T03:23:30.029Z,100.00
2023-05-20T03:25:56.597Z,100.00
2023-05-20T03:28:23.154Z,100.00
2023-05-20T03:30:49.876Z,100.00
2023-05-20T03:33:16.809Z,100.00
2023-05-20T03:35:43.379Z,100.00
2023-05-20T03:38:10.151Z,100.00
2023-05-20T03:40:36.861Z,100.00
2023-05-20T03:43:03.472Z,100.00
2023-05-20T03:45:30.682Z,100.00
2023-05-20T03:47:57.473Z,98.75
2023-05-20T03:50:24.241Z,90.79
2023-05-20T03:52:51.006Z,85.32
2023-05-20T03:55:17.685Z,81.82
2023-05-20T03:57:44.246Z,76.38
2023-05-20T04:00:11.860Z,70.14
2023-05-20T04:02:38.782Z,70.81
2023-05-20T04:05:08.589Z,66.62
2023-05-20T04:07:35.977Z,64.63
2023-05-20T04:10:03.774Z,61.73
2023-05-20T04:12:32.173Z,58.70
2023-05-20T04:15:01.370Z,58.94
2023-05-20T04:17:31.533Z,57.96
2023-05-20T04:20:00.043Z,57.63
2023-05-20T04:22:27.456Z,57.76
2023-05-20T04:24:54.406Z,58.00
2023-05-20T04:27:21.790Z,57.36
2023-05-20T04:29:48.807Z,56.26
2023-05-20T04:32:19.125Z,56.89
2023-05-20T04:34:46.909Z,55.13
2023-05-20T04:37:13.909Z,53.75
2023-05-20T04:39:40.540Z,53.75
2023-05-20T04:42:07.216Z,54.74
2023-05-20T04:44:34.593Z,54.83
2023-05-20T04:47:01.226Z,55.41
2023-05-20T04:49:30.006Z,55.36
2023-05-20T04:51:56.645Z,55.05
2023-05-20T04:54:23.479Z,55.93
2023-05-20T04:56:51.068Z,57.46
2023-05-20T04:59:17.749Z,55.80
2023-05-20T05:01:44.503Z,54.96
2023-05-20T05:04:11.235Z,55.92
2023-05-20T05:06:37.859Z,57.19
2023-05-20T05:09:04.936Z,57.26
2023-05-20T05:11:31.817Z,55.44
2023-05-20T05:13:58.685Z,54.67
2023-05-20T05:16:25.638Z,54.08
2023-05-20T05:18:52.360Z,53.32
2023-05-20T05:21:19.067Z,54.59
2023-05-20T05:23:46.085Z,53.18
2023-05-20T05:26:12.737Z,52.22
2023-05-20T05:28:43.163Z,54.04
2023-05-20T05:31:10.234Z,54.02
2023-05-20T05:33:36.876Z,55.02
2023-05-20T05:36:05.010Z,52.82
2023-05-20T05:38:31.774Z,53.43
2023-05-20T05:40:58.374Z,52.53
2023-05-20T05:43:26.080Z,51.96
2023-05-20T05:45:52.810Z,52.94
2023-05-20T05:48:19.616Z,51.58
2023-05-20T05:50:46.928Z,51.92
2023-05-20T05:53:13.624Z,51.57
2023-05-20T05:55:40.364Z,50.63
2023-05-20T05:58:07.284Z,50.20
2023-05-20T06:00:34.003Z,52.40
2023-05-20T06:03:00.898Z,53.51
2023-05-20T06:05:31.264Z,52.95
2023-05-20T06:07:57.955Z,52.23
2023-05-20T06:10:24.665Z,52.79
2023-05-20T06:12:51.306Z,51.85
2023-05-20T06:15:18.156Z,51.35
2023-05-20T06:17:44.928Z,51.84
2023-05-20T06:20:11.968Z,51.26
2023-05-20T06:22:38.722Z,50.37
2023-05-20T06:25:06.362Z,49.99
2023-05-20T06:27:33.309Z,50.28
2023-05-20T06:30:00.030Z,51.08
2023-05-20T06:32:26.765Z,50.71
2023-05-20T06:34:53.419Z,51.09
2023-05-20T06:37:20.336Z,51.22
2023-05-20T06:39:47.748Z,50.76
2023-05-20T06:42:14.356Z,50.46
2023-05-20T06:44:40.960Z,49.49
2023-05-20T06:47:07.686Z,49.79
2023-05-20T06:49:34.322Z,50.18
2023-05-20T06:52:00.986Z,52.41
2023-05-20T06:54:27.633Z,51.52
2023-05-20T06:56:54.324Z,52.20
2023-05-20T06:59:21.433Z,52.83
2023-05-20T07:01:48.115Z,53.74
2023-05-20T07:04:14.818Z,52.76
2023-05-20T07:06:41.440Z,51.96
2023-05-20T07:09:08.174Z,51.65
2023-05-20T07:11:34.902Z,51.66
2023-05-20T07:14:01.538Z,51.31
2023-05-20T07:16:29.692Z,52.34
2023-05-20T07:18:56.354Z,52.50
2023-05-20T07:21:23.005Z,52.66
2023-05-20T07:23:49.628Z,50.99
2023-05-20T07:26:16.489Z,52.77
2023-05-20T07:28:44.057Z,51.79
2023-05-20T07:31:10.650Z,52.93
2023-05-20T07:33:37.583Z,52.79
2023-05-20T07:36:04.331Z,51.48
2023-05-20T07:38:31.064Z,51.72
2023-05-20T07:40:57.946Z,51.74
2023-05-20T07:43:25.557Z,52.21
2023-05-20T07:45:52.245Z,51.73
2023-05-20T07:48:18.976Z,50.89
2023-05-20T07:50:45.735Z,52.63
2023-05-20T07:53:12.366Z,53.07
2023-05-20T07:55:39.354Z,53.60
2023-05-20T07:58:06.222Z,51.67
2023-05-20T08:00:32.924Z,51.76
2023-05-20T08:02:59.718Z,50.78
2023-05-20T08:05:26.647Z,51.55
2023-05-20T08:07:53.250Z,53.27
2023-05-20T08:10:19.967Z,52.70
2023-05-20T08:12:47.444Z,51.77
2023-05-20T08:15:14.114Z,52.87
2023-05-20T08:17:40.880Z,53.63
2023-05-20T08:20:12.997Z,55.16
2023-05-20T08:22:39.671Z,53.17
2023-05-20T08:25:08.943Z,53.28
2023-05-20T08:27:38.729Z,53.83
2023-05-20T08:30:08.252Z,55.19
2023-05-20T08:32:34.984Z,54.25
2023-05-20T08:35:02.260Z,54.40
2023-05-20T08:37:29.868Z,54.22
2023-05-20T08:39:56.635Z,55.49
2023-05-20T08:42:24.573Z,54.42
2023-05-20T08:44:53.015Z,54.71
2023-05-20T08:47:22.989Z,53.85
2023-05-20T08:49:49.898Z,55.49
2023-05-20T08:52:18.501Z,55.37
2023-05-20T08:54:47.882Z,56.02
2023-05-20T08:57:14.567Z,54.52
2023-05-20T08:59:47.024Z,54.63
2023-05-20T09:02:14.461Z,55.19
2023-05-20T09:04:41.195Z,55.32
2023-05-20T09:07:08.445Z,56.50
2023-05-20T09:09:35.808Z,56.45
2023-05-20T09:12:03.316Z,56.69
2023-05-20T09:14:31.219Z,57.03
2023-05-20T09:16:57.872Z,57.44
2023-05-20T09:19:25.079Z,58.04
2023-05-20T09:21:54.218Z,58.10
2023-05-20T09:24:24.305Z,58.40
2023-05-20T09:26:51.355Z,58.00
2023-05-20T09:29:19.800Z,56.98
2023-05-20T09:31:46.687Z,57.70
2023-05-20T09:34:13.929Z,56.57
2023-05-20T09:36:41.773Z,56.75
2023-05-20T09:39:12.564Z,57.92
2023-05-20T09:41:46.077Z,57.76
2023-05-20T09:44:16.371Z,57.89
2023-05-20T09:46:46.045Z,58.34
2023-05-20T09:49:13.394Z,58.89
2023-05-20T09:51:44.553Z,58.99
2023-05-20T09:54:12.945Z,58.52
2023-05-20T09:56:42.123Z,58.61
2023-05-20T09:59:10.679Z,58.66
2023-05-20T10:01:37.694Z,57.82
2023-05-20T10:04:08.116Z,59.24
2023-05-20T10:06:56.274Z,57.79
2023-05-20T10:09:22.971Z,57.84
2023-05-20T10:12:05.268Z,57.82
2023-05-20T10:14:55.849Z,58.07
2023-05-20T10:17:42.226Z,58.24
2023-05-20T10:20:17.783Z,58.35
2023-05-20T10:22:55.040Z,57.42
2023-05-20T10:25:29.235Z,57.84
2023-05-20T10:28:08.915Z,57.97
2023-05-20T10:30:36.348Z,57.56
2023-05-20T10:33:05.794Z,57.23
2023-05-20T10:35:32.745Z,57.26
2023-05-20T10:38:17.219Z,57.02
2023-05-20T10:40:43.912Z,57.58
2023-05-20T10:43:12.303Z,57.03
2023-05-20T10:45:49.702Z,57.14
2023-05-20T10:48:33.670Z,57.25
2023-05-20T10:51:04.936Z,57.46
2023-05-20T10:53:42.046Z,57.18
2023-05-20T10:56:19.311Z,57.56
2023-05-20T10:58:46.023Z,56.53
2023-05-20T11:01:14.227Z,56.95
2023-05-20T11:03:41.826Z,57.34
2023-05-20T11:06:18.214Z,56.98
2023-05-20T11:08:46.149Z,58.21
2023-05-20T11:11:13.611Z,57.49
2023-05-20T11:13:40.335Z,57.31
2023-05-20T11:16:07.281Z,57.07
2023-05-20T11:18:34.005Z,58.46
2023-05-20T11:21:01.857Z,57.96
2023-05-20T11:23:29.688Z,57.88
2023-05-20T11:25:57.766Z,57.11
2023-05-20T11:28:24.838Z,57.45
2023-05-20T11:30:52.863Z,57.39
2023-05-20T11:33:19.667Z,56.62
2023-05-20T11:35:52.923Z,57.06
2023-05-20T11:38:20.846Z,56.66
2023-05-20T11:40:54.811Z,56.55
2023-05-20T11:43:23.716Z,56.71
2023-05-20T11:46:01.814Z,58.27
2023-05-20T11:48:28.535Z,58.40
2023-05-20T11:50:56.989Z,58.33
2023-05-20T11:53:24.861Z,58.60
2023-05-20T11:55:55.014Z,57.99
2023-05-20T11:58:23.900Z,57.72
2023-05-20T12:00:55.017Z,58.43
2023-05-20T12:03:26.585Z,58.56
2023-05-20T12:05:53.686Z,58.56
2023-05-20T12:08:20.441Z,57.80
2023-05-20T12:10:47.201Z,58.78
2023-05-20T12:13:13.841Z,58.55
2023-05-20T12:15:41.051Z,59.08
2023-05-20T12:18:07.997Z,58.63
2023-05-20T12:20:34.936Z,59.42
2023-05-20T12:23:02.046Z,59.26
2023-05-20T12:25:29.461Z,58.86
2023-05-20T12:27:56.398Z,58.25
2023-05-20T12:30:24.083Z,58.80
2023-05-20T12:32:52.248Z,58.40
2023-05-20T12:35:26.714Z,58.42
2023-05-20T12:37:53.667Z,57.84
2023-05-20T12:40:20.486Z,58.40
2023-05-20T12:42:47.156Z,59.77
2023-05-20T12:45:13.884Z,59.44
2023-05-20T12:47:41.110Z,58.75
2023-05-20T12:50:08.107Z,57.42
2023-05-20T12:52:34.768Z,57.24
2023-05-20T12:55:01.410Z,58.02
2023-05-20T12:57:28.113Z,58.93
2023-05-20T12:59:54.819Z,58.90
2023-05-20T13:02:21.437Z,58.82
2023-05-20T13:04:48.201Z,59.13
2023-05-20T13:07:15.125Z,57.99
2023-05-20T13:09:41.711Z,58.68
2023-05-20T13:12:08.701Z,59.34
2023-05-20T13:14:35.748Z,59.74
2023-05-20T13:17:02.722Z,59.79
2023-05-20T13:19:29.433Z,59.88
2023-05-20T13:21:56.112Z,59.67
2023-05-20T13:24:22.818Z,59.92
2023-05-20T13:26:49.527Z,59.72
2023-05-20T13:29:16.305Z,59.98
2023-05-20T13:31:42.956Z,59.96
2023-05-20T13:34:09.789Z,60.47
2023-05-20T13:36:36.428Z,60.81
2023-05-20T13:39:21.770Z,59.76
2023-05-20T13:41:48.460Z,61.93
2023-05-20T13:44:15.720Z,62.01
2023-05-20T13:46:42.618Z,61.87
2023-05-20T13:49:09.286Z,61.62
2023-05-20T13:51:35.966Z,61.29
2023-05-20T13:54:02.753Z,61.57
2023-05-20T13:56:31.885Z,62.46
2023-05-20T13:58:58.584Z,63.33
2023-05-20T14:01:25.179Z,62.92
2023-05-20T14:03:52.188Z,63.12
2023-05-20T14:06:19.112Z,62.81
2023-05-20T14:08:47.169Z,62.87
2023-05-20T14:11:13.951Z,63.08
2023-05-20T14:13:41.103Z,63.28
2023-05-20T14:16:07.726Z,63.37
2023-05-20T14:18:34.417Z,62.79
2023-05-20T14:21:01.296Z,63.72
2023-05-20T14:23:27.968Z,63.33
2023-05-20T14:25:55.020Z,64.04
2023-05-20T14:28:21.769Z,64.15
2023-05-20T14:30:48.467Z,64.29
2023-05-20T14:33:15.309Z,64.30
2023-05-20T14:35:41.966Z,63.99
2023-05-20T14:38:08.589Z,63.96
2023-05-20T14:40:35.405Z,64.21
2023-05-20T14:43:02.399Z,64.70
2023-05-20T14:45:29.871Z,64.57
2023-05-20T14:47:56.589Z,63.73
2023-05-20T14:50:23.480Z,63.07
2023-05-20T14:52:50.071Z,63.17
2023-05-20T14:55:16.756Z,63.36
2023-05-20T14:57:43.463Z,63.55
2023-05-20T15:00:10.722Z,63.99
2023-05-20T15:02:37.521Z,64.18
2023-05-20T15:05:04.594Z,64.45
2023-05-20T15:07:31.488Z,65.37
2023-05-20T15:09:58.140Z,66.22
2023-05-20T15:12:24.888Z,67.31
2023-05-20T15:14:51.513Z,67.14
2023-05-20T15:17:18.235Z,67.33
2023-05-20T15:19:44.972Z,67.21
2023-05-20T15:22:11.551Z,66.54
2023-05-20T15:24:38.175Z,67.23
2023-05-20T15:27:05.007Z,67.01
2023-05-20T15:29:31.636Z,67.97
2023-05-20T15:31:58.775Z,68.42
2023-05-20T15:34:25.716Z,68.59
2023-05-20T15:36:52.464Z,68.50
2023-05-20T15:39:19.131Z,68.57
2023-05-20T15:41:48.113Z,68.01
2023-05-20T15:44:14.708Z,68.21
2023-05-20T15:46:41.350Z,68.92
2023-05-20T15:49:08.116Z,69.50
2023-05-20T15:51:34.760Z,65.26
2023-05-20T15:54:01.365Z,66.96
2023-05-20T15:56:29.393Z,67.01
2023-05-20T15:58:56.325Z,68.59
2023-05-20T16:01:23.684Z,69.77
2023-05-20T16:03:50.834Z,70.31
2023-05-20T16:06:17.578Z,70.38
2023-05-20T16:08:44.222Z,70.49
2023-05-20T16:11:11.131Z,71.23
2023-05-20T16:13:37.865Z,70.50
2023-05-20T16:16:04.919Z,70.50
2023-05-20T16:18:31.643Z,71.34
2023-05-20T16:20:58.322Z,71.71
2023-05-20T16:23:25.222Z,71.05
2023-05-20T16:25:52.244Z,71.08
2023-05-20T16:28:18.936Z,71.16
2023-05-20T16:30:45.671Z,71.13
2023-05-20T16:33:13.435Z,70.97
2023-05-20T16:35:40.131Z,71.17
2023-05-20T16:38:07.061Z,71.01
2023-05-20T16:40:34.493Z,70.62
2023-05-20T16:43:01.287Z,70.48
2023-05-20T16:45:28.130Z,70.42
2023-05-20T16:47:55.581Z,70.66
2023-05-20T16:50:22.425Z,70.11
2023-05-20T16:52:49.024Z,70.63
2023-05-20T16:55:15.963Z,70.68
2023-05-20T16:57:43.321Z,70.72
2023-05-20T17:00:11.625Z,71.13
2023-05-20T17:02:38.390Z,70.38
2023-05-20T17:05:05.500Z,70.26
2023-05-20T17:07:33.456Z,70.60
2023-05-20T17:10:00.573Z,70.04
2023-05-20T17:12:27.471Z,69.92
2023-05-20T17:14:54.231Z,70.30
2023-05-20T17:17:21.342Z,70.38
2023-05-20T17:19:47.992Z,70.90
2023-05-20T17:22:14.727Z,70.26
2023-05-20T17:24:41.393Z,70.21
2023-05-20T17:27:08.051Z,70.45
2023-05-20T17:29:34.768Z,69.93
2023-05-20T17:32:01.365Z,70.00
2023-05-20T17:34:28.058Z,70.04
2023-05-20T17:36:54.784Z,69.76
2023-05-20T17:39:21.589Z,69.34
2023-05-20T17:41:48.216Z,70.11
2023-05-20T17:44:14.990Z,70.01
2023-05-20T17:46:41.813Z,69.66
2023-05-20T17:49:08.707Z,69.27
2023-05-20T17:51:35.556Z,69.48
2023-05-20T17:54:02.417Z,70.16
2023-05-20T17:56:29.112Z,69.98
2023-05-20T17:58:56.208Z,69.68
2023-05-20T18:01:23.496Z,68.99
2023-05-20T18:03:50.729Z,69.06
2023-05-20T18:06:18.110Z,68.64
2023-05-20T18:08:44.966Z,68.75
2023-05-20T18:11:11.796Z,68.36
2023-05-20T18:13:38.477Z,68.54
2023-05-20T18:16:06.149Z,68.13
2023-05-20T18:18:32.838Z,67.80
2023-05-20T18:20:59.583Z,68.13
2023-05-20T18:23:26.297Z,68.47
2023-05-20T18:25:52.911Z,68.52
2023-05-20T18:28:19.465Z,68.24
2023-05-20T18:30:46.385Z,68.16
2023-05-20T18:33:13.738Z,68.60
2023-05-20T18:35:40.391Z,68.86
2023-05-20T18:38:07.255Z,68.60
2023-05-20T18:40:34.434Z,68.50
2023-05-20T18:43:01.174Z,69.21
2023-05-20T18:45:28.312Z,69.11
2023-05-20T18:47:55.180Z,69.48
2023-05-20T18:50:22.007Z,69.98
2023-05-20T18:52:48.601Z,70.02
2023-05-20T18:55:15.318Z,70.35
2023-05-20T18:57:41.913Z,70.31
2023-05-20T19:00:12.305Z,70.60
2023-05-20T19:02:40.458Z,70.84
2023-05-20T19:05:08.363Z,70.42
2023-05-20T19:07:35.201Z,70.92
2023-05-20T19:10:02.183Z,71.50
2023-05-20T19:12:28.840Z,71.54
2023-05-20T19:14:55.639Z,72.04
2023-05-20T19:17:22.756Z,72.73
2023-05-20T19:19:49.712Z,72.48
2023-05-20T19:22:16.667Z,72.66
2023-05-20T19:24:43.318Z,73.90
2023-05-20T19:27:09.948Z,75.63
2023-05-20T19:29:36.729Z,76.47
2023-05-20T19:32:03.641Z,76.86
2023-05-20T19:34:30.451Z,77.16
2023-05-20T19:36:57.231Z,78.06
2023-05-20T19:39:24.046Z,79.02
2023-05-20T19:41:51.020Z,80.42
2023-05-20T19:44:19.059Z,81.05
2023-05-20T19:46:47.540Z,81.67
2023-05-20T19:49:14.145Z,84.21
2023-05-20T19:51:41.076Z,86.62
2023-05-20T19:54:07.722Z,90.56
2023-05-20T19:56:34.503Z,93.09
2023-05-20T19:59:01.916Z,96.27
2023-05-20T20:01:28.871Z,98.12
2023-05-20T20:03:55.697Z,100.00
2023-05-20T20:06:22.491Z,100.00
2023-05-20T20:08:49.484Z,100.00
2023-05-20T20:11:16.231Z,100.00
2023-05-20T20:13:42.869Z,100.00
2023-05-20T20:16:09.514Z,100.00
2023-05-20T20:18:36.251Z,100.00
2023-05-20T20:21:06.658Z,100.00
2023-05-20T20:23:33.376Z,100.00
2023-05-20T20:25:59.975Z,100.00
2023-05-20T20:28:26.664Z,100.00
2023-05-20T20:30:53.611Z,100.00
2023-05-20T20:33:20.246Z,100.00
2023-05-20T20:35:47.403Z,100.00
2023-05-20T20:38:15.097Z,100.00
2023-05-20T20:40:42.668Z,100.00
2023-05-20T20:43:11.216Z,100.00
2023-05-20T20:45:38.441Z,100.00
2023-05-20T20:48:08.244Z,100.00
2023-05-20T20:50:35.885Z,100.00
2023-05-20T20:53:02.828Z,100.00
2023-05-20T20:55:30.587Z,100.00
2023-05-20T20:57:58.434Z,100.00
2023-05-20T21:00:25.521Z,100.00
2023-05-20T21:02:52.259Z,100.00
2023-05-20T21:05:19.010Z,100.00
2023-05-20T21:07:52.680Z,100.00
2023-05-20T21:10:19.471Z,100.00
2023-05-20T21:12:46.154Z,100.00
2023-05-20T21:15:14.984Z,100.00
2023-05-20T21:17:41.813Z,100.00
2023-05-20T21:20:09.087Z,100.00
2023-05-20T21:22:35.855Z,100.00
2023-05-20T21:25:02.678Z,100.00
2023-05-20T21:27:29.365Z,100.00
2023-05-20T21:29:56.254Z,100.00
2023-05-20T21:32:22.846Z,100.00
2023-05-20T21:34:49.437Z,100.00
2023-05-20T21:37:16.222Z,100.00
2023-05-20T21:39:42.856Z,100.00
2023-05-20T21:42:09.547Z,100.00
2023-05-20T21:44:36.757Z,100.00
2023-05-20T21:47:04.008Z,100.00
2023-05-20T21:49:30.593Z,100.00
2023-05-20T21:51:57.457Z,100.00
2023-05-20T21:54:24.196Z,100.00
2023-05-20T21:56:51.554Z,100.00
2023-05-20T21:59:18.447Z,100.00
2023-05-20T22:01:45.128Z,100.00
2023-05-20T22:04:12.071Z,100.00
2023-05-20T22:06:39.817Z,100.00
2023-05-20T22:09:06.760Z,100.00
2023-05-20T22:11:33.846Z,100.00
2023-05-20T22:14:00.487Z,100.00
2023-05-20T22:16:27.207Z,100.00
2023-05-20T22:18:54.276Z,100.00
2023-05-20T22:21:21.710Z,100.00
2023-05-20T22:23:48.498Z,100.00
2023-05-20T22:26:15.141Z,100.00
2023-05-20T22:28:41.827Z,100.00
2023-05-20T22:31:08.548Z,100.00
2023-05-20T22:33:35.251Z,100.00
2023-05-20T22:36:01.825Z,100.00
2023-05-20T22:38:30.830Z,100.00
2023-05-20T22:40:57.674Z,100.00
2023-05-20T22:43:24.822Z,100.00
2023-05-20T22:45:51.911Z,100.00
2023-05-20T22:48:22.907Z,100.00
2023-05-20T22:50:50.918Z,100.00
2023-05-20T22:53:17.681Z,100.00
2023-05-20T22:55:44.442Z,100.00
2023-05-20T22:58:12.276Z,100.00
2023-05-20T23:00:39.116Z,100.00
2023-05-20T23:03:06.430Z,100.00
2023-05-20T23:05:33.099Z,100.00
2023-05-20T23:07:59.708Z,100.00
2023-05-20T23:10:26.556Z,100.00
2023-05-20T23:12:53.212Z,100.00
2023-05-20T23:15:19.906Z,100.00
2023-05-20T23:17:46.842Z,100.00
2023-05-20T23:20:14.485Z,100.00
2023-05-20T23:22:41.359Z,100.00
2023-05-20T23:25:08.551Z,100.00
2023-05-20T23:27:35.241Z,100.00
2023-05-20T23:30:02.157Z,100.00
2023-05-20T23:32:28.786Z,100.00
2023-05-20T23:34:55.638Z,100.00
2023-05-20T23:37:22.652Z,100.00
2023-05-20T23:39:49.274Z,100.00
2023-05-20T23:42:16.259Z,100.00
2023-05-20T23:44:43.529Z,100.00
2023-05-20T23:47:13.567Z,100.00
2023-05-20T23:49:41.736Z,100.00
2023-05-20T23:52:08.541Z,100.00
2023-05-20T23:54:35.299Z,100.00
2023-05-20T23:57:02.454Z,100.00
2023-05-20T23:59:29.166Z,100.00
